sensor_id;sensor_type;location;lat;lon;timestamp;P1;durP1;ratioP1;P2;durP2;ratioP2
10537;SDS011;5317;49.048;8.468;2023-08-21T00:01:00;8.90;;;5.10;;
10537;SDS011;5317;49.048;8.468;2023-08-21T00:03:28;6.13;;;4.90;;
10537;SDS011;5317;49.048;8.468;2023-08-21T00:05:55;5.40;;;5.00;;
10537;SDS011;5317;49.048;8.468;2023-08-21T00:08:21;5.40;;;4.90;;
10537;SDS011;5317;49.048;8.468;2023-08-21T00:10:50;7.00;;;4.80;;
10537;SDS011;5317;49.048;8.468;2023-08-21T00:13:16;8.33;;;5.27;;
10537;SDS011;5317;49.048;8.468;2023-08-21T00:15:44;5.97;;;5.47;;
10537;SDS011;5317;49.048;8.468;2023-08-21T00:18:10;6.57;;;4.80;;
10537;SDS011;5317;49.048;8.468;2023-08-21T00:20:37;6.10;;;5.50;;
10537;SDS011;5317;49.048;8.468;2023-08-21T00:23:06;6.00;;;5.17;;
10537;SDS011;5317;49.048;8.468;2023-08-21T00:25:33;6.93;;;5.80;;
10537;SDS011;5317;49.048;8.468;2023-08-21T00:28:02;6.00;;;5.37;;
10537;SDS011;5317;49.048;8.468;2023-08-21T00:30:29;5.27;;;4.80;;
10537;SDS011;5317;49.048;8.468;2023-08-21T00:32:56;5.63;;;5.13;;
10537;SDS011;5317;49.048;8.468;2023-08-21T00:35:23;6.57;;;5.37;;
10537;SDS011;5317;49.048;8.468;2023-08-21T00:37:49;5.60;;;5.10;;
10537;SDS011;5317;49.048;8.468;2023-08-21T00:40:16;6.00;;;5.43;;
10537;SDS011;5317;49.048;8.468;2023-08-21T00:42:43;9.30;;;5.30;;
10537;SDS011;5317;49.048;8.468;2023-08-21T00:45:12;6.13;;;5.30;;
10537;SDS011;5317;49.048;8.468;2023-08-21T00:47:39;5.60;;;5.03;;
10537;SDS011;5317;49.048;8.468;2023-08-21T00:50:06;5.77;;;5.17;;
10537;SDS011;5317;49.048;8.468;2023-08-21T00:52:34;5.97;;;4.87;;
10537;SDS011;5317;49.048;8.468;2023-08-21T00:55:02;6.23;;;5.00;;
10537;SDS011;5317;49.048;8.468;2023-08-21T00:57:29;5.47;;;4.97;;
10537;SDS011;5317;49.048;8.468;2023-08-21T00:59:57;10.70;;;5.80;;
10537;SDS011;5317;49.048;8.468;2023-08-21T01:02:27;4.77;;;4.37;;
10537;SDS011;5317;49.048;8.468;2023-08-21T01:04:53;5.97;;;5.37;;
10537;SDS011;5317;49.048;8.468;2023-08-21T01:07:23;5.70;;;5.20;;
10537;SDS011;5317;49.048;8.468;2023-08-21T01:09:50;6.20;;;5.40;;
10537;SDS011;5317;49.048;8.468;2023-08-21T01:12:23;6.20;;;5.30;;
10537;SDS011;5317;49.048;8.468;2023-08-21T01:14:57;5.73;;;5.23;;
10537;SDS011;5317;49.048;8.468;2023-08-21T01:17:27;6.23;;;5.63;;
10537;SDS011;5317;49.048;8.468;2023-08-21T01:19:55;7.27;;;5.53;;
10537;SDS011;5317;49.048;8.468;2023-08-21T01:22:25;6.03;;;5.53;;
10537;SDS011;5317;49.048;8.468;2023-08-21T01:24:53;6.03;;;5.53;;
10537;SDS011;5317;49.048;8.468;2023-08-21T01:27:20;6.70;;;6.00;;
10537;SDS011;5317;49.048;8.468;2023-08-21T01:29:48;5.87;;;5.20;;
10537;SDS011;5317;49.048;8.468;2023-08-21T01:32:17;6.17;;;5.57;;
10537;SDS011;5317;49.048;8.468;2023-08-21T01:34:48;7.57;;;5.93;;
10537;SDS011;5317;49.048;8.468;2023-08-21T01:37:17;6.20;;;5.50;;
10537;SDS011;5317;49.048;8.468;2023-08-21T01:39:44;6.00;;;5.40;;
10537;SDS011;5317;49.048;8.468;2023-08-21T01:42:12;6.33;;;5.50;;
10537;SDS011;5317;49.048;8.468;2023-08-21T01:44:39;5.67;;;5.17;;
10537;SDS011;5317;49.048;8.468;2023-08-21T01:47:07;6.03;;;5.20;;
10537;SDS011;5317;49.048;8.468;2023-08-21T01:49:34;4.97;;;4.57;;
10537;SDS011;5317;49.048;8.468;2023-08-21T01:52:00;4.87;;;4.43;;
10537;SDS011;5317;49.048;8.468;2023-08-21T01:54:27;6.73;;;5.10;;
10537;SDS011;5317;49.048;8.468;2023-08-21T01:56:54;5.60;;;5.10;;
10537;SDS011;5317;49.048;8.468;2023-08-21T01:59:23;5.97;;;4.97;;
10537;SDS011;5317;49.048;8.468;2023-08-21T02:01:50;6.50;;;5.40;;
10537;SDS011;5317;49.048;8.468;2023-08-21T02:04:17;5.50;;;5.03;;
10537;SDS011;5317;49.048;8.468;2023-08-21T02:06:44;7.10;;;5.63;;
10537;SDS011;5317;49.048;8.468;2023-08-21T02:09:11;5.87;;;5.27;;
10537;SDS011;5317;49.048;8.468;2023-08-21T02:11:37;6.93;;;5.20;;
10537;SDS011;5317;49.048;8.468;2023-08-21T02:14:04;5.57;;;5.07;;
10537;SDS011;5317;49.048;8.468;2023-08-21T02:16:33;5.33;;;4.83;;
10537;SDS011;5317;49.048;8.468;2023-08-21T02:18:59;5.00;;;4.50;;
10537;SDS011;5317;49.048;8.468;2023-08-21T02:21:26;5.50;;;5.00;;
10537;SDS011;5317;49.048;8.468;2023-08-21T02:23:53;5.43;;;4.97;;
10537;SDS011;5317;49.048;8.468;2023-08-21T02:26:20;5.63;;;5.10;;
10537;SDS011;5317;49.048;8.468;2023-08-21T02:28:47;5.47;;;4.97;;
10537;SDS011;5317;49.048;8.468;2023-08-21T02:31:13;6.90;;;5.73;;
10537;SDS011;5317;49.048;8.468;2023-08-21T02:33:41;6.20;;;5.67;;
10537;SDS011;5317;49.048;8.468;2023-08-21T02:36:08;6.17;;;5.30;;
10537;SDS011;5317;49.048;8.468;2023-08-21T02:38:35;6.00;;;5.43;;
10537;SDS011;5317;49.048;8.468;2023-08-21T02:41:02;5.97;;;5.37;;
10537;SDS011;5317;49.048;8.468;2023-08-21T02:43:29;6.00;;;5.40;;
10537;SDS011;5317;49.048;8.468;2023-08-21T02:45:55;5.63;;;5.00;;
10537;SDS011;5317;49.048;8.468;2023-08-21T02:48:22;6.73;;;5.70;;
10537;SDS011;5317;49.048;8.468;2023-08-21T02:50:50;6.63;;;5.50;;
10537;SDS011;5317;49.048;8.468;2023-08-21T02:53:17;6.23;;;5.73;;
10537;SDS011;5317;49.048;8.468;2023-08-21T02:55:44;6.60;;;5.80;;
10537;SDS011;5317;49.048;8.468;2023-08-21T02:58:11;7.53;;;5.63;;
10537;SDS011;5317;49.048;8.468;2023-08-21T03:00:38;6.17;;;5.63;;
10537;SDS011;5317;49.048;8.468;2023-08-21T03:03:05;6.37;;;5.77;;
10537;SDS011;5317;49.048;8.468;2023-08-21T03:05:31;7.33;;;5.87;;
10537;SDS011;5317;49.048;8.468;2023-08-21T03:08:00;6.00;;;5.33;;
10537;SDS011;5317;49.048;8.468;2023-08-21T03:10:26;7.13;;;5.47;;
10537;SDS011;5317;49.048;8.468;2023-08-21T03:12:55;5.40;;;4.90;;
10537;SDS011;5317;49.048;8.468;2023-08-21T03:15:21;6.20;;;5.37;;
10537;SDS011;5317;49.048;8.468;2023-08-21T03:17:48;6.23;;;5.63;;
10537;SDS011;5317;49.048;8.468;2023-08-21T03:20:15;5.30;;;4.80;;
10537;SDS011;5317;49.048;8.468;2023-08-21T03:22:43;5.67;;;5.10;;
10537;SDS011;5317;49.048;8.468;2023-08-21T03:25:11;7.23;;;5.17;;
10537;SDS011;5317;49.048;8.468;2023-08-21T03:27:38;5.40;;;4.90;;
10537;SDS011;5317;49.048;8.468;2023-08-21T03:30:09;5.77;;;5.27;;
10537;SDS011;5317;49.048;8.468;2023-08-21T03:32:39;6.20;;;5.57;;
10537;SDS011;5317;49.048;8.468;2023-08-21T03:35:06;6.47;;;5.50;;
10537;SDS011;5317;49.048;8.468;2023-08-21T03:37:34;7.37;;;5.90;;
10537;SDS011;5317;49.048;8.468;2023-08-21T03:40:01;6.23;;;5.47;;
10537;SDS011;5317;49.048;8.468;2023-08-21T03:42:29;8.23;;;6.00;;
10537;SDS011;5317;49.048;8.468;2023-08-21T03:44:56;6.00;;;5.40;;
10537;SDS011;5317;49.048;8.468;2023-08-21T03:47:23;8.87;;;5.07;;
10537;SDS011;5317;49.048;8.468;2023-08-21T03:49:50;6.33;;;5.73;;
10537;SDS011;5317;49.048;8.468;2023-08-21T03:52:17;6.57;;;5.67;;
10537;SDS011;5317;49.048;8.468;2023-08-21T03:54:43;7.10;;;5.77;;
10537;SDS011;5317;49.048;8.468;2023-08-21T03:57:10;6.00;;;5.50;;
10537;SDS011;5317;49.048;8.468;2023-08-21T03:59:39;6.57;;;5.23;;
10537;SDS011;5317;49.048;8.468;2023-08-21T04:02:06;6.03;;;5.33;;
10537;SDS011;5317;49.048;8.468;2023-08-21T04:04:33;6.03;;;5.47;;
10537;SDS011;5317;49.048;8.468;2023-08-21T04:07:00;10.33;;;5.57;;
10537;SDS011;5317;49.048;8.468;2023-08-21T04:09:27;6.47;;;5.80;;
10537;SDS011;5317;49.048;8.468;2023-08-21T04:11:53;5.70;;;5.10;;
10537;SDS011;5317;49.048;8.468;2023-08-21T04:14:20;5.80;;;5.30;;
10537;SDS011;5317;49.048;8.468;2023-08-21T04:16:49;6.20;;;5.60;;
10537;SDS011;5317;49.048;8.468;2023-08-21T04:19:15;5.73;;;5.23;;
10537;SDS011;5317;49.048;8.468;2023-08-21T04:21:42;6.10;;;5.50;;
10537;SDS011;5317;49.048;8.468;2023-08-21T04:24:09;6.10;;;5.60;;
10537;SDS011;5317;49.048;8.468;2023-08-21T04:26:36;8.80;;;5.47;;
10537;SDS011;5317;49.048;8.468;2023-08-21T04:29:03;6.83;;;5.73;;
10537;SDS011;5317;49.048;8.468;2023-08-21T04:31:29;6.27;;;5.27;;
10537;SDS011;5317;49.048;8.468;2023-08-21T04:33:57;8.23;;;5.60;;
10537;SDS011;5317;49.048;8.468;2023-08-21T04:36:24;6.70;;;6.00;;
10537;SDS011;5317;49.048;8.468;2023-08-21T04:38:51;6.37;;;5.87;;
10537;SDS011;5317;49.048;8.468;2023-08-21T04:41:18;5.90;;;5.40;;
10537;SDS011;5317;49.048;8.468;2023-08-21T04:43:45;6.60;;;6.00;;
10537;SDS011;5317;49.048;8.468;2023-08-21T04:46:11;7.00;;;5.20;;
10537;SDS011;5317;49.048;8.468;2023-08-21T04:48:38;5.93;;;5.40;;
10537;SDS011;5317;49.048;8.468;2023-08-21T04:51:06;7.53;;;5.47;;
10537;SDS011;5317;49.048;8.468;2023-08-21T04:53:33;8.20;;;5.57;;
10537;SDS011;5317;49.048;8.468;2023-08-21T04:56:00;8.27;;;6.40;;
10537;SDS011;5317;49.048;8.468;2023-08-21T04:58:28;10.93;;;6.23;;
10537;SDS011;5317;49.048;8.468;2023-08-21T05:00:55;10.63;;;7.00;;
10537;SDS011;5317;49.048;8.468;2023-08-21T05:03:22;10.77;;;8.33;;
10537;SDS011;5317;49.048;8.468;2023-08-21T05:05:52;10.37;;;7.00;;
10537;SDS011;5317;49.048;8.468;2023-08-21T05:08:21;9.07;;;7.20;;
10537;SDS011;5317;49.048;8.468;2023-08-21T05:10:53;8.20;;;6.77;;
10537;SDS011;5317;49.048;8.468;2023-08-21T05:13:21;11.87;;;6.73;;
10537;SDS011;5317;49.048;8.468;2023-08-21T05:15:50;8.20;;;6.57;;
10537;SDS011;5317;49.048;8.468;2023-08-21T05:18:18;8.53;;;6.30;;
10537;SDS011;5317;49.048;8.468;2023-08-21T05:20:45;6.90;;;6.20;;
10537;SDS011;5317;49.048;8.468;2023-08-21T05:23:12;6.63;;;5.37;;
10537;SDS011;5317;49.048;8.468;2023-08-21T05:25:40;6.63;;;6.03;;
10537;SDS011;5317;49.048;8.468;2023-08-21T05:28:07;7.53;;;6.83;;
10537;SDS011;5317;49.048;8.468;2023-08-21T05:30:35;7.27;;;6.23;;
10537;SDS011;5317;49.048;8.468;2023-08-21T05:33:02;9.00;;;6.47;;
10537;SDS011;5317;49.048;8.468;2023-08-21T05:35:32;7.67;;;6.60;;
10537;SDS011;5317;49.048;8.468;2023-08-21T05:37:59;7.83;;;6.33;;
10537;SDS011;5317;49.048;8.468;2023-08-21T05:40:26;7.33;;;6.63;;
10537;SDS011;5317;49.048;8.468;2023-08-21T05:42:54;6.63;;;6.00;;
10537;SDS011;5317;49.048;8.468;2023-08-21T05:45:21;6.97;;;6.37;;
10537;SDS011;5317;49.048;8.468;2023-08-21T05:47:47;7.70;;;7.00;;
10537;SDS011;5317;49.048;8.468;2023-08-21T05:50:14;7.33;;;6.10;;
10537;SDS011;5317;49.048;8.468;2023-08-21T05:52:41;6.67;;;6.07;;
10537;SDS011;5317;49.048;8.468;2023-08-21T05:55:08;8.53;;;7.13;;
10537;SDS011;5317;49.048;8.468;2023-08-21T05:57:35;7.07;;;6.37;;
10537;SDS011;5317;49.048;8.468;2023-08-21T06:00:05;8.20;;;7.40;;
10537;SDS011;5317;49.048;8.468;2023-08-21T06:02:34;7.80;;;7.10;;
10537;SDS011;5317;49.048;8.468;2023-08-21T06:05:00;6.87;;;6.17;;
10537;SDS011;5317;49.048;8.468;2023-08-21T06:07:28;6.77;;;6.17;;
10537;SDS011;5317;49.048;8.468;2023-08-21T06:09:55;7.17;;;6.47;;
10537;SDS011;5317;49.048;8.468;2023-08-21T06:12:21;7.77;;;6.43;;
10537;SDS011;5317;49.048;8.468;2023-08-21T06:14:48;6.63;;;6.00;;
10537;SDS011;5317;49.048;8.468;2023-08-21T06:17:17;6.50;;;5.90;;
10537;SDS011;5317;49.048;8.468;2023-08-21T06:19:43;7.30;;;6.60;;
10537;SDS011;5317;49.048;8.468;2023-08-21T06:22:10;7.37;;;6.53;;
10537;SDS011;5317;49.048;8.468;2023-08-21T06:24:37;7.53;;;6.43;;
10537;SDS011;5317;49.048;8.468;2023-08-21T06:27:04;8.40;;;6.83;;
10537;SDS011;5317;49.048;8.468;2023-08-21T06:29:31;7.87;;;6.17;;
10537;SDS011;5317;49.048;8.468;2023-08-21T06:31:58;8.27;;;6.83;;
10537;SDS011;5317;49.048;8.468;2023-08-21T06:34:26;6.90;;;6.30;;
10537;SDS011;5317;49.048;8.468;2023-08-21T06:36:53;7.10;;;6.47;;
10537;SDS011;5317;49.048;8.468;2023-08-21T06:39:19;7.47;;;6.67;;
10537;SDS011;5317;49.048;8.468;2023-08-21T06:41:46;7.90;;;7.17;;
10537;SDS011;5317;49.048;8.468;2023-08-21T06:44:13;6.93;;;6.33;;
10537;SDS011;5317;49.048;8.468;2023-08-21T06:46:40;7.37;;;6.17;;
10537;SDS011;5317;49.048;8.468;2023-08-21T06:49:07;7.90;;;7.10;;
10537;SDS011;5317;49.048;8.468;2023-08-21T06:51:35;7.50;;;6.80;;
10537;SDS011;5317;49.048;8.468;2023-08-21T06:54:02;7.73;;;6.70;;
10537;SDS011;5317;49.048;8.468;2023-08-21T06:56:29;9.00;;;7.90;;
10537;SDS011;5317;49.048;8.468;2023-08-21T06:58:55;7.87;;;7.13;;
10537;SDS011;5317;49.048;8.468;2023-08-21T07:01:22;7.87;;;7.10;;
10537;SDS011;5317;49.048;8.468;2023-08-21T07:03:49;8.63;;;7.77;;
10537;SDS011;5317;49.048;8.468;2023-08-21T07:06:16;7.70;;;7.00;;
10537;SDS011;5317;49.048;8.468;2023-08-21T07:08:44;9.33;;;8.37;;
10537;SDS011;5317;49.048;8.468;2023-08-21T07:11:11;8.10;;;7.30;;
10537;SDS011;5317;49.048;8.468;2023-08-21T07:13:38;8.90;;;8.10;;
10537;SDS011;5317;49.048;8.468;2023-08-21T07:16:05;8.20;;;7.40;;
10537;SDS011;5317;49.048;8.468;2023-08-21T07:18:34;8.10;;;7.30;;
10537;SDS011;5317;49.048;8.468;2023-08-21T07:21:01;7.33;;;6.63;;
10537;SDS011;5317;49.048;8.468;2023-08-21T07:23:29;9.03;;;6.97;;
10537;SDS011;5317;49.048;8.468;2023-08-21T07:25:58;8.03;;;7.03;;
10537;SDS011;5317;49.048;8.468;2023-08-21T07:28:25;7.33;;;6.67;;
10537;SDS011;5317;49.048;8.468;2023-08-21T07:30:55;8.50;;;7.60;;
10537;SDS011;5317;49.048;8.468;2023-08-21T07:33:22;8.43;;;7.63;;
10537;SDS011;5317;49.048;8.468;2023-08-21T07:35:56;7.53;;;6.80;;
10537;SDS011;5317;49.048;8.468;2023-08-21T07:38:23;8.43;;;7.23;;
10537;SDS011;5317;49.048;8.468;2023-08-21T07:41:01;9.13;;;7.60;;
10537;SDS011;5317;49.048;8.468;2023-08-21T07:43:30;7.67;;;6.90;;
10537;SDS011;5317;49.048;8.468;2023-08-21T07:45:57;7.97;;;6.77;;
10537;SDS011;5317;49.048;8.468;2023-08-21T07:48:24;7.43;;;6.77;;
10537;SDS011;5317;49.048;8.468;2023-08-21T07:50:51;7.83;;;7.23;;
10537;SDS011;5317;49.048;8.468;2023-08-21T07:53:18;7.60;;;6.90;;
10537;SDS011;5317;49.048;8.468;2023-08-21T07:55:45;7.60;;;6.80;;
10537;SDS011;5317;49.048;8.468;2023-08-21T07:58:13;7.50;;;6.77;;
10537;SDS011;5317;49.048;8.468;2023-08-21T08:00:40;7.73;;;7.00;;
10537;SDS011;5317;49.048;8.468;2023-08-21T08:03:07;8.00;;;7.17;;
10537;SDS011;5317;49.048;8.468;2023-08-21T08:05:35;7.00;;;6.30;;
10537;SDS011;5317;49.048;8.468;2023-08-21T08:08:02;7.00;;;6.30;;
10537;SDS011;5317;49.048;8.468;2023-08-21T08:10:29;7.73;;;6.50;;
10537;SDS011;5317;49.048;8.468;2023-08-21T08:12:56;6.57;;;5.97;;
10537;SDS011;5317;49.048;8.468;2023-08-21T08:15:24;7.53;;;6.80;;
10537;SDS011;5317;49.048;8.468;2023-08-21T08:17:53;7.57;;;6.40;;
10537;SDS011;5317;49.048;8.468;2023-08-21T08:20:21;8.20;;;7.00;;
10537;SDS011;5317;49.048;8.468;2023-08-21T08:22:47;7.03;;;6.43;;
10537;SDS011;5317;49.048;8.468;2023-08-21T08:25:14;7.37;;;6.67;;
10537;SDS011;5317;49.048;8.468;2023-08-21T08:27:42;7.63;;;6.90;;
10537;SDS011;5317;49.048;8.468;2023-08-21T08:30:09;7.47;;;6.77;;
10537;SDS011;5317;49.048;8.468;2023-08-21T08:32:38;7.27;;;6.03;;
10537;SDS011;5317;49.048;8.468;2023-08-21T08:35:06;6.83;;;6.23;;
10537;SDS011;5317;49.048;8.468;2023-08-21T08:37:33;7.10;;;6.40;;
10537;SDS011;5317;49.048;8.468;2023-08-21T08:40:00;8.90;;;6.13;;
10537;SDS011;5317;49.048;8.468;2023-08-21T08:42:27;6.13;;;5.53;;
10537;SDS011;5317;49.048;8.468;2023-08-21T08:44:54;6.07;;;5.57;;
10537;SDS011;5317;49.048;8.468;2023-08-21T08:47:22;6.43;;;5.83;;
10537;SDS011;5317;49.048;8.468;2023-08-21T08:49:51;6.67;;;6.17;;
10537;SDS011;5317;49.048;8.468;2023-08-21T08:52:20;6.70;;;5.60;;
10537;SDS011;5317;49.048;8.468;2023-08-21T08:54:49;6.43;;;5.83;;
10537;SDS011;5317;49.048;8.468;2023-08-21T08:57:15;6.43;;;5.33;;
10537;SDS011;5317;49.048;8.468;2023-08-21T08:59:42;6.70;;;6.07;;
10537;SDS011;5317;49.048;8.468;2023-08-21T09:02:09;6.50;;;5.87;;
10537;SDS011;5317;49.048;8.468;2023-08-21T09:04:36;6.40;;;5.80;;
10537;SDS011;5317;49.048;8.468;2023-08-21T09:07:08;7.30;;;6.57;;
10537;SDS011;5317;49.048;8.468;2023-08-21T09:09:39;6.40;;;5.90;;
10537;SDS011;5317;49.048;8.468;2023-08-21T09:12:09;6.47;;;5.97;;
10537;SDS011;5317;49.048;8.468;2023-08-21T09:14:37;6.33;;;5.50;;
10537;SDS011;5317;49.048;8.468;2023-08-21T09:17:06;6.80;;;6.00;;
10537;SDS011;5317;49.048;8.468;2023-08-21T09:19:33;8.13;;;6.90;;
10537;SDS011;5317;49.048;8.468;2023-08-21T09:22:07;6.70;;;6.10;;
10537;SDS011;5317;49.048;8.468;2023-08-21T09:24:35;8.47;;;6.40;;
10537;SDS011;5317;49.048;8.468;2023-08-21T09:27:02;7.37;;;6.13;;
10537;SDS011;5317;49.048;8.468;2023-08-21T09:29:37;7.00;;;6.40;;
10537;SDS011;5317;49.048;8.468;2023-08-21T09:32:05;6.87;;;6.27;;
10537;SDS011;5317;49.048;8.468;2023-08-21T09:34:35;7.03;;;6.33;;
10537;SDS011;5317;49.048;8.468;2023-08-21T09:37:04;6.40;;;5.80;;
10537;SDS011;5317;49.048;8.468;2023-08-21T09:39:34;7.10;;;6.50;;
10537;SDS011;5317;49.048;8.468;2023-08-21T09:42:04;7.20;;;6.53;;
10537;SDS011;5317;49.048;8.468;2023-08-21T09:44:35;6.53;;;5.93;;
10537;SDS011;5317;49.048;8.468;2023-08-21T09:47:10;6.93;;;6.33;;
10537;SDS011;5317;49.048;8.468;2023-08-21T09:49:38;6.37;;;5.77;;
10537;SDS011;5317;49.048;8.468;2023-08-21T09:52:05;8.73;;;6.10;;
10537;SDS011;5317;49.048;8.468;2023-08-21T09:54:36;6.60;;;6.00;;
10537;SDS011;5317;49.048;8.468;2023-08-21T09:57:04;7.40;;;6.10;;
10537;SDS011;5317;49.048;8.468;2023-08-21T09:59:31;6.83;;;6.13;;
10537;SDS011;5317;49.048;8.468;2023-08-21T10:01:58;6.90;;;6.30;;
10537;SDS011;5317;49.048;8.468;2023-08-21T10:04:27;6.07;;;5.47;;
10537;SDS011;5317;49.048;8.468;2023-08-21T10:06:56;6.63;;;5.90;;
10537;SDS011;5317;49.048;8.468;2023-08-21T10:09:24;5.90;;;5.37;;
10537;SDS011;5317;49.048;8.468;2023-08-21T10:11:54;6.83;;;6.00;;
10537;SDS011;5317;49.048;8.468;2023-08-21T10:14:22;5.97;;;5.47;;
10537;SDS011;5317;49.048;8.468;2023-08-21T10:16:50;6.43;;;5.70;;
10537;SDS011;5317;49.048;8.468;2023-08-21T10:19:19;6.33;;;5.80;;
10537;SDS011;5317;49.048;8.468;2023-08-21T10:21:46;6.40;;;5.80;;
10537;SDS011;5317;49.048;8.468;2023-08-21T10:24:22;6.20;;;5.60;;
10537;SDS011;5317;49.048;8.468;2023-08-21T10:26:54;5.57;;;5.00;;
10537;SDS011;5317;49.048;8.468;2023-08-21T10:29:24;5.47;;;4.90;;
10537;SDS011;5317;49.048;8.468;2023-08-21T10:31:58;7.00;;;5.50;;
10537;SDS011;5317;49.048;8.468;2023-08-21T10:34:30;5.53;;;4.93;;
10537;SDS011;5317;49.048;8.468;2023-08-21T10:37:03;5.10;;;4.70;;
10537;SDS011;5317;49.048;8.468;2023-08-21T10:39:35;5.40;;;4.90;;
10537;SDS011;5317;49.048;8.468;2023-08-21T10:42:05;5.23;;;4.73;;
10537;SDS011;5317;49.048;8.468;2023-08-21T10:44:33;5.93;;;4.97;;
10537;SDS011;5317;49.048;8.468;2023-08-21T10:47:13;5.87;;;5.27;;
10537;SDS011;5317;49.048;8.468;2023-08-21T10:49:41;5.80;;;5.23;;
10537;SDS011;5317;49.048;8.468;2023-08-21T10:52:09;5.43;;;5.03;;
10537;SDS011;5317;49.048;8.468;2023-08-21T10:54:43;6.27;;;5.33;;
10537;SDS011;5317;49.048;8.468;2023-08-21T10:57:13;5.83;;;5.23;;
10537;SDS011;5317;49.048;8.468;2023-08-21T10:59:49;6.83;;;4.40;;
10537;SDS011;5317;49.048;8.468;2023-08-21T11:02:16;5.27;;;4.77;;
10537;SDS011;5317;49.048;8.468;2023-08-21T11:04:43;6.43;;;4.53;;
10537;SDS011;5317;49.048;8.468;2023-08-21T11:07:10;4.83;;;4.43;;
10537;SDS011;5317;49.048;8.468;2023-08-21T11:09:38;6.10;;;4.80;;
10537;SDS011;5317;49.048;8.468;2023-08-21T11:12:06;4.40;;;3.97;;
10537;SDS011;5317;49.048;8.468;2023-08-21T11:14:35;5.30;;;4.50;;
10537;SDS011;5317;49.048;8.468;2023-08-21T11:17:02;6.13;;;4.53;;
10537;SDS011;5317;49.048;8.468;2023-08-21T11:19:30;4.63;;;4.17;;
10537;SDS011;5317;49.048;8.468;2023-08-21T11:21:57;4.93;;;4.43;;
10537;SDS011;5317;49.048;8.468;2023-08-21T11:24:39;4.40;;;3.83;;
10537;SDS011;5317;49.048;8.468;2023-08-21T11:27:11;4.17;;;3.77;;
10537;SDS011;5317;49.048;8.468;2023-08-21T11:29:41;4.70;;;4.03;;
10537;SDS011;5317;49.048;8.468;2023-08-21T11:32:09;4.97;;;3.97;;
10537;SDS011;5317;49.048;8.468;2023-08-21T11:34:36;5.10;;;3.93;;
10537;SDS011;5317;49.048;8.468;2023-08-21T11:37:04;4.60;;;4.20;;
10537;SDS011;5317;49.048;8.468;2023-08-21T11:39:42;4.77;;;4.00;;
10537;SDS011;5317;49.048;8.468;2023-08-21T11:42:10;5.87;;;4.20;;
10537;SDS011;5317;49.048;8.468;2023-08-21T11:44:44;5.07;;;4.40;;
10537;SDS011;5317;49.048;8.468;2023-08-21T11:47:12;4.47;;;4.07;;
10537;SDS011;5317;49.048;8.468;2023-08-21T11:49:40;5.40;;;4.60;;
10537;SDS011;5317;49.048;8.468;2023-08-21T11:52:08;4.50;;;4.10;;
10537;SDS011;5317;49.048;8.468;2023-08-21T11:54:36;6.10;;;4.63;;
10537;SDS011;5317;49.048;8.468;2023-08-21T11:57:05;4.80;;;4.30;;
10537;SDS011;5317;49.048;8.468;2023-08-21T11:59:33;5.07;;;4.57;;
10537;SDS011;5317;49.048;8.468;2023-08-21T12:02:05;5.67;;;4.20;;
10537;SDS011;5317;49.048;8.468;2023-08-21T12:04:36;5.30;;;4.80;;
10537;SDS011;5317;49.048;8.468;2023-08-21T12:07:03;4.90;;;4.40;;
10537;SDS011;5317;49.048;8.468;2023-08-21T12:09:30;5.07;;;4.43;;
10537;SDS011;5317;49.048;8.468;2023-08-21T12:11:57;5.30;;;4.80;;
10537;SDS011;5317;49.048;8.468;2023-08-21T12:14:24;5.90;;;4.73;;
10537;SDS011;5317;49.048;8.468;2023-08-21T12:16:50;5.40;;;4.77;;
10537;SDS011;5317;49.048;8.468;2023-08-21T12:19:18;5.50;;;4.70;;
10537;SDS011;5317;49.048;8.468;2023-08-21T12:21:46;7.40;;;5.07;;
10537;SDS011;5317;49.048;8.468;2023-08-21T12:24:13;5.10;;;4.60;;
10537;SDS011;5317;49.048;8.468;2023-08-21T12:26:40;5.53;;;4.73;;
10537;SDS011;5317;49.048;8.468;2023-08-21T12:29:07;4.87;;;4.37;;
10537;SDS011;5317;49.048;8.468;2023-08-21T12:31:33;5.60;;;4.27;;
10537;SDS011;5317;49.048;8.468;2023-08-21T12:34:02;5.37;;;4.87;;
10537;SDS011;5317;49.048;8.468;2023-08-21T12:36:30;4.83;;;4.43;;
10537;SDS011;5317;49.048;8.468;2023-08-21T12:38:57;4.87;;;4.30;;
10537;SDS011;5317;49.048;8.468;2023-08-21T12:41:23;5.33;;;4.83;;
10537;SDS011;5317;49.048;8.468;2023-08-21T12:43:50;6.60;;;5.03;;
10537;SDS011;5317;49.048;8.468;2023-08-21T12:46:17;4.90;;;4.40;;
10537;SDS011;5317;49.048;8.468;2023-08-21T12:48:44;6.03;;;5.07;;
10537;SDS011;5317;49.048;8.468;2023-08-21T12:51:10;5.10;;;4.60;;
10537;SDS011;5317;49.048;8.468;2023-08-21T12:53:39;5.90;;;4.80;;
10537;SDS011;5317;49.048;8.468;2023-08-21T12:56:05;5.30;;;4.90;;
10537;SDS011;5317;49.048;8.468;2023-08-21T12:58:32;5.47;;;4.77;;
10537;SDS011;5317;49.048;8.468;2023-08-21T13:00:59;5.13;;;4.63;;
10537;SDS011;5317;49.048;8.468;2023-08-21T13:03:28;6.90;;;5.17;;
10537;SDS011;5317;49.048;8.468;2023-08-21T13:05:55;4.90;;;4.33;;
10537;SDS011;5317;49.048;8.468;2023-08-21T13:08:21;4.80;;;4.33;;
10537;SDS011;5317;49.048;8.468;2023-08-21T13:10:50;5.70;;;4.10;;
10537;SDS011;5317;49.048;8.468;2023-08-21T13:13:17;5.73;;;4.47;;
10537;SDS011;5317;49.048;8.468;2023-08-21T13:15:43;4.93;;;4.43;;
10537;SDS011;5317;49.048;8.468;2023-08-21T13:18:11;5.50;;;4.17;;
10537;SDS011;5317;49.048;8.468;2023-08-21T13:20:39;5.30;;;4.30;;
10537;SDS011;5317;49.048;8.468;2023-08-21T13:23:06;5.43;;;4.87;;
10537;SDS011;5317;49.048;8.468;2023-08-21T13:25:33;5.80;;;5.03;;
10537;SDS011;5317;49.048;8.468;2023-08-21T13:28:02;5.30;;;4.37;;
10537;SDS011;5317;49.048;8.468;2023-08-21T13:30:29;5.70;;;4.67;;
10537;SDS011;5317;49.048;8.468;2023-08-21T13:32:57;7.57;;;4.50;;
10537;SDS011;5317;49.048;8.468;2023-08-21T13:35:23;5.27;;;4.80;;
10537;SDS011;5317;49.048;8.468;2023-08-21T13:37:50;5.53;;;5.03;;
10537;SDS011;5317;49.048;8.468;2023-08-21T13:40:17;5.07;;;4.60;;
10537;SDS011;5317;49.048;8.468;2023-08-21T13:42:44;5.10;;;4.60;;
10537;SDS011;5317;49.048;8.468;2023-08-21T13:45:15;5.47;;;4.97;;
10537;SDS011;5317;49.048;8.468;2023-08-21T13:47:46;5.13;;;4.63;;
10537;SDS011;5317;49.048;8.468;2023-08-21T13:50:14;6.93;;;4.60;;
10537;SDS011;5317;49.048;8.468;2023-08-21T13:52:42;5.07;;;4.30;;
10537;SDS011;5317;49.048;8.468;2023-08-21T13:55:10;4.90;;;4.47;;
10537;SDS011;5317;49.048;8.468;2023-08-21T13:57:37;6.67;;;4.70;;
10537;SDS011;5317;49.048;8.468;2023-08-21T14:00:05;5.53;;;4.63;;
10537;SDS011;5317;49.048;8.468;2023-08-21T14:02:38;8.57;;;4.70;;
10537;SDS011;5317;49.048;8.468;2023-08-21T14:05:06;5.90;;;5.10;;
10537;SDS011;5317;49.048;8.468;2023-08-21T14:07:33;5.10;;;4.70;;
10537;SDS011;5317;49.048;8.468;2023-08-21T14:10:01;4.30;;;3.90;;
10537;SDS011;5317;49.048;8.468;2023-08-21T14:12:30;4.53;;;4.13;;
10537;SDS011;5317;49.048;8.468;2023-08-21T14:14:57;4.73;;;3.90;;
10537;SDS011;5317;49.048;8.468;2023-08-21T14:17:24;4.93;;;4.43;;
10537;SDS011;5317;49.048;8.468;2023-08-21T14:19:53;5.47;;;4.20;;
10537;SDS011;5317;49.048;8.468;2023-08-21T14:22:20;4.00;;;3.70;;
10537;SDS011;5317;49.048;8.468;2023-08-21T14:24:46;3.80;;;3.50;;
10537;SDS011;5317;49.048;8.468;2023-08-21T14:27:13;5.37;;;3.80;;
10537;SDS011;5317;49.048;8.468;2023-08-21T14:29:41;4.17;;;3.87;;
10537;SDS011;5317;49.048;8.468;2023-08-21T14:32:09;4.20;;;3.80;;
10537;SDS011;5317;49.048;8.468;2023-08-21T14:34:35;5.37;;;3.47;;
10537;SDS011;5317;49.048;8.468;2023-08-21T14:37:04;5.17;;;4.20;;
10537;SDS011;5317;49.048;8.468;2023-08-21T14:39:31;4.93;;;3.90;;
10537;SDS011;5317;49.048;8.468;2023-08-21T14:41:58;4.37;;;3.97;;
10537;SDS011;5317;49.048;8.468;2023-08-21T14:44:26;4.60;;;3.67;;
10537;SDS011;5317;49.048;8.468;2023-08-21T14:46:53;3.90;;;3.60;;
10537;SDS011;5317;49.048;8.468;2023-08-21T14:49:21;5.30;;;4.13;;
10537;SDS011;5317;49.048;8.468;2023-08-21T14:51:48;4.47;;;4.07;;
10537;SDS011;5317;49.048;8.468;2023-08-21T14:54:16;4.27;;;3.83;;
10537;SDS011;5317;49.048;8.468;2023-08-21T14:56:43;3.77;;;3.47;;
10537;SDS011;5317;49.048;8.468;2023-08-21T14:59:10;4.37;;;3.97;;
10537;SDS011;5317;49.048;8.468;2023-08-21T15:01:36;4.40;;;3.60;;
10537;SDS011;5317;49.048;8.468;2023-08-21T15:04:04;7.13;;;4.13;;